createdAt,value
2023-02-03T00:01:00.000Z,5.9
2023-02-03T00:02:31.000Z,6.2
2023-02-03T00:05:18.000Z,4.9
2023-02-03T00:06:35.000Z,4.8
2023-02-03T00:08:06.000Z,4.8
2023-02-03T00:09:36.000Z,5.6
2023-02-03T00:11:07.000Z,5.3
2023-02-03T00:12:37.000Z,6.2
2023-02-03T00:14:08.000Z,6
2023-02-03T00:15:38.000Z,5.7
2023-02-03T00:17:09.000Z,5.4
2023-02-03T00:18:39.000Z,6
2023-02-03T00:20:10.000Z,5.7
2023-02-03T00:21:27.000Z,5.5
2023-02-03T00:24:14.000Z,5.4
2023-02-03T00:25:45.000Z,5.5
2023-02-03T00:27:15.000Z,5.6
2023-02-03T00:28:46.000Z,5.3
2023-02-03T00:30:16.000Z,5.3
2023-02-03T00:31:47.000Z,5.6
2023-02-03T00:33:17.000Z,5.7
2023-02-03T00:34:48.000Z,5.4
2023-02-03T00:36:18.000Z,5.5
2023-02-03T00:37:35.000Z,5.1
2023-02-03T00:38:52.000Z,5.4
2023-02-03T00:40:23.000Z,6.2
2023-02-03T00:41:53.000Z,5.7
2023-02-03T00:43:24.000Z,6.1
2023-02-03T00:46:25.000Z,5.8
2023-02-03T00:47:55.000Z,6.1
2023-02-03T00:49:26.000Z,5.5
2023-02-03T00:50:56.000Z,5.5
2023-02-03T00:52:27.000Z,6.4
2023-02-03T00:53:44.000Z,5.9
2023-02-03T00:55:01.000Z,5.9
2023-02-03T00:56:31.000Z,5.5
2023-02-03T00:59:32.000Z,6.1
2023-02-03T01:01:03.000Z,5.7
2023-02-03T01:02:33.000Z,6
2023-02-03T01:04:04.000Z,5.9
2023-02-03T01:05:34.000Z,6.3
2023-02-03T01:07:05.000Z,6
2023-02-03T01:08:35.000Z,5.9
2023-02-03T01:09:52.000Z,5.9
2023-02-03T01:11:09.000Z,6.1
2023-02-03T01:12:40.000Z,6.1
2023-02-03T01:15:41.000Z,6.1
2023-02-03T01:17:11.000Z,5.9
2023-02-03T01:18:42.000Z,5.8
2023-02-03T01:20:12.000Z,5.6
2023-02-03T01:21:43.000Z,5.1
2023-02-03T01:24:44.000Z,5.9
2023-02-03T01:26:01.000Z,5.8
2023-02-03T01:27:17.000Z,5.4
2023-02-03T01:28:48.000Z,4.7
2023-02-03T01:30:19.000Z,5.1
2023-02-03T01:33:20.000Z,4.9
2023-02-03T01:34:50.000Z,4.5
2023-02-03T01:36:21.000Z,4.7
2023-02-03T01:37:51.000Z,5.1
2023-02-03T01:39:22.000Z,4.7
2023-02-03T01:40:52.000Z,5.2
2023-02-03T01:42:09.000Z,5.5
2023-02-03T01:43:26.000Z,5.5
2023-02-03T01:44:57.000Z,5.2
2023-02-03T01:46:27.000Z,5.5
2023-02-03T01:47:58.000Z,5.1
2023-02-03T01:49:28.000Z,5.6
2023-02-03T01:50:59.000Z,5.1
2023-02-03T01:52:29.000Z,5.1
2023-02-03T01:55:30.000Z,4.9
2023-02-03T01:57:01.000Z,4.6
2023-02-03T01:58:17.000Z,5.5
2023-02-03T01:59:34.000Z,4.7
2023-02-03T02:01:05.000Z,4.9
2023-02-03T02:02:35.000Z,4.8
2023-02-03T02:04:06.000Z,7
2023-02-03T02:05:36.000Z,11.6
2023-02-03T02:07:07.000Z,14.4
2023-02-03T02:08:37.000Z,15.5
2023-02-03T02:10:08.000Z,15.9
2023-02-03T02:11:38.000Z,15.6
2023-02-03T02:13:09.000Z,15.8
2023-02-03T02:14:26.000Z,15.5
2023-02-03T02:15:43.000Z,14.5
2023-02-03T02:17:13.000Z,14.5
2023-02-03T02:20:14.000Z,15.8
2023-02-03T02:21:45.000Z,14.4
2023-02-03T02:23:15.000Z,14.9
2023-02-03T02:24:46.000Z,14.8
2023-02-03T02:26:16.000Z,14.6
2023-02-03T02:27:47.000Z,13.4
2023-02-03T02:29:17.000Z,13.1
2023-02-03T02:30:34.000Z,12.6
2023-02-03T02:31:51.000Z,11.4
2023-02-03T02:33:21.000Z,12.2
2023-02-03T02:34:52.000Z,11.6
2023-02-03T02:37:53.000Z,12
2023-02-03T02:39:23.000Z,11.5
2023-02-03T02:40:54.000Z,11.4
2023-02-03T02:42:24.000Z,11.4
2023-02-03T02:43:55.000Z,10.5
2023-02-03T02:45:25.000Z,10.1
2023-02-03T02:46:42.000Z,10.2
2023-02-03T02:47:59.000Z,10.3
2023-02-03T02:49:30.000Z,10
2023-02-03T02:51:00.000Z,10.6
2023-02-03T02:52:31.000Z,10
2023-02-03T02:54:01.000Z,9.7
2023-02-03T02:58:33.000Z,9.3
2023-02-03T03:00:03.000Z,9
2023-02-03T03:01:34.000Z,9.1
2023-02-03T03:02:51.000Z,8.8
2023-02-03T03:04:08.000Z,9.3
2023-02-03T03:05:38.000Z,8
2023-02-03T03:07:09.000Z,8.5
2023-02-03T03:08:39.000Z,7.6
2023-02-03T03:10:10.000Z,8.3
2023-02-03T03:13:11.000Z,7.6
2023-02-03T03:14:41.000Z,7.9
2023-02-03T03:16:12.000Z,7.8
2023-02-03T03:17:42.000Z,7.3
2023-02-03T03:18:59.000Z,7
2023-02-03T03:20:16.000Z,7.5
2023-02-03T03:21:47.000Z,6.5
2023-02-03T03:23:17.000Z,7.1
2023-02-03T03:26:18.000Z,6.8
2023-02-03T03:29:19.000Z,6.4
2023-02-03T03:30:50.000Z,6.3
2023-02-03T03:32:20.000Z,6.9
2023-02-03T03:33:51.000Z,6.5
2023-02-03T03:35:08.000Z,6.1
2023-02-03T03:36:25.000Z,6.3
2023-02-03T03:37:55.000Z,5.9
2023-02-03T03:39:26.000Z,5.8
2023-02-03T03:40:56.000Z,5.9
2023-02-03T03:42:27.000Z,5.9
2023-02-03T03:43:57.000Z,5.5
2023-02-03T03:46:58.000Z,5.9
2023-02-03T03:48:29.000Z,5.8
2023-02-03T03:49:59.000Z,5.1
2023-02-03T03:51:16.000Z,5.7
2023-02-03T03:54:04.000Z,5.1
2023-02-03T03:55:34.000Z,5.6
2023-02-03T03:57:05.000Z,5.4
2023-02-03T03:58:35.000Z,5.6
2023-02-03T04:00:14.000Z,5.6
2023-02-03T04:01:44.000Z,5.2
2023-02-03T04:03:15.000Z,5.3
2023-02-03T04:04:46.000Z,5.5
2023-02-03T04:06:16.000Z,5.3
2023-02-03T04:07:33.000Z,5.3
2023-02-03T04:08:50.000Z,5.1
2023-02-03T04:10:20.000Z,5.1
2023-02-03T04:11:51.000Z,5.2
2023-02-03T04:13:21.000Z,5
2023-02-03T04:14:52.000Z,5.1
2023-02-03T04:16:23.000Z,5.3
2023-02-03T04:17:53.000Z,5.2
2023-02-03T04:19:24.000Z,5.4
2023-02-03T04:20:54.000Z,4.7
2023-02-03T04:22:25.000Z,4.7
2023-02-03T04:24:59.000Z,4.7
2023-02-03T04:26:29.000Z,4.7
2023-02-03T04:28:00.000Z,4.8
2023-02-03T04:29:30.000Z,4.2
2023-02-03T04:31:01.000Z,4.4
2023-02-03T04:32:31.000Z,4.7
2023-02-03T04:35:32.000Z,3.9
2023-02-03T04:37:03.000Z,5.3
2023-02-03T04:38:33.000Z,4.1
2023-02-03T04:39:50.000Z,4.4
2023-02-03T04:41:07.000Z,4
2023-02-03T04:44:08.000Z,4.1
2023-02-03T04:45:39.000Z,4.1
2023-02-03T04:47:09.000Z,4
2023-02-03T04:48:40.000Z,3.5
2023-02-03T04:50:10.000Z,3.6
2023-02-03T04:51:41.000Z,3.5
2023-02-03T04:54:56.000Z,3.4
2023-02-03T04:56:14.000Z,3.1
2023-02-03T04:58:58.000Z,3.8
2023-02-03T05:01:43.000Z,3.6
2023-02-03T05:04:28.000Z,3.1
2023-02-03T05:07:12.000Z,3.2
2023-02-03T05:09:57.000Z,3.3
2023-02-03T05:12:42.000Z,3.1
2023-02-03T05:15:26.000Z,3
2023-02-03T05:18:11.000Z,3.2
2023-02-03T05:20:55.000Z,3.1
2023-02-03T05:22:22.000Z,3
2023-02-03T05:23:40.000Z,3
2023-02-03T05:26:25.000Z,3.2
2023-02-03T05:29:26.000Z,3.1
2023-02-03T05:32:10.000Z,3
2023-02-03T05:34:55.000Z,2.7
2023-02-03T05:37:40.000Z,2.6
2023-02-03T05:40:24.000Z,2.4
2023-02-03T05:43:09.000Z,2.5
2023-02-03T05:45:54.000Z,2.6
2023-02-03T05:48:38.000Z,2.6
2023-02-03T05:49:56.000Z,2.6
2023-02-03T05:51:23.000Z,2.9
2023-02-03T05:54:08.000Z,2.7
2023-02-03T05:56:52.000Z,2.8
2023-02-03T05:59:53.000Z,2.5
2023-02-03T06:02:38.000Z,2.5
2023-02-03T06:08:07.000Z,2.7
2023-02-03T06:10:52.000Z,2.7
2023-02-03T06:13:36.000Z,2.7
2023-02-03T06:16:21.000Z,2.4
2023-02-03T06:17:39.000Z,2.5
2023-02-03T06:19:06.000Z,3
2023-02-03T06:21:50.000Z,2.8
2023-02-03T06:24:35.000Z,3
2023-02-03T06:27:20.000Z,3
2023-02-03T06:30:04.000Z,2.7
2023-02-03T06:32:49.000Z,2.6
2023-02-03T06:35:34.000Z,2.9
2023-02-03T06:38:18.000Z,2.6
2023-02-03T06:41:03.000Z,2.7
2023-02-03T06:43:47.000Z,2.8
2023-02-03T06:45:05.000Z,2.6
2023-02-03T06:46:32.000Z,2.8
2023-02-03T06:49:17.000Z,2.7
2023-02-03T06:52:01.000Z,2.5
2023-02-03T06:54:46.000Z,2.7
2023-02-03T06:57:31.000Z,2.5
2023-02-03T07:00:15.000Z,2.8
2023-02-03T07:03:00.000Z,2.8
2023-02-03T07:05:45.000Z,2.7
2023-02-03T07:08:29.000Z,2.7
2023-02-03T07:11:14.000Z,2.9
2023-02-03T07:12:32.000Z,2.6
2023-02-03T07:13:59.000Z,3.1
2023-02-03T07:16:43.000Z,2.7
2023-02-03T07:19:28.000Z,3.1
2023-02-03T07:22:12.000Z,2.9
2023-02-03T07:24:57.000Z,3.2
2023-02-03T07:27:42.000Z,3.2
2023-02-03T07:30:26.000Z,3.4
2023-02-03T07:33:11.000Z,3.4
2023-02-03T07:35:56.000Z,3.3
2023-02-03T07:38:40.000Z,3.4
2023-02-03T07:39:58.000Z,3.5
2023-02-03T07:41:25.000Z,3.5
2023-02-03T07:44:10.000Z,3.5
2023-02-03T07:46:54.000Z,3.3
2023-02-03T07:49:39.000Z,3.3
2023-02-03T07:52:23.000Z,4
2023-02-03T07:55:08.000Z,3.7
2023-02-03T07:57:53.000Z,3.5
2023-02-03T08:00:37.000Z,3.4
2023-02-03T08:03:22.000Z,3.6
2023-02-03T08:06:07.000Z,3.7
2023-02-03T08:07:24.000Z,4.3
2023-02-03T08:08:51.000Z,3.9
2023-02-03T08:11:36.000Z,4.1
2023-02-03T08:14:21.000Z,4.2
2023-02-03T08:17:05.000Z,4.2
2023-02-03T08:19:50.000Z,4
2023-02-03T08:22:35.000Z,3.9
2023-02-03T08:25:19.000Z,3.9
2023-02-03T08:28:04.000Z,3.9
2023-02-03T08:30:48.000Z,4.1
2023-02-03T08:34:51.000Z,4.1
2023-02-03T08:36:18.000Z,4
2023-02-03T08:39:02.000Z,4.1
2023-02-03T08:41:47.000Z,4.2
2023-02-03T08:44:32.000Z,4
2023-02-03T08:47:16.000Z,3.8
2023-02-03T08:50:01.000Z,4
2023-02-03T08:52:46.000Z,3.9
2023-02-03T08:55:30.000Z,4.3
2023-02-03T08:58:15.000Z,3.4
2023-02-03T09:00:59.000Z,4.3
2023-02-03T09:02:17.000Z,4
2023-02-03T09:03:44.000Z,3.6
2023-02-03T09:09:13.000Z,3.4
2023-02-03T09:14:43.000Z,3.4
2023-02-03T09:17:28.000Z,3.4
2023-02-03T09:20:28.000Z,4
2023-02-03T09:23:13.000Z,3.6
2023-02-03T09:28:42.000Z,4.1
2023-02-03T09:30:00.000Z,4
2023-02-03T09:31:27.000Z,3.5
2023-02-03T09:34:12.000Z,3.8
2023-02-03T09:36:56.000Z,3.6
2023-02-03T09:39:41.000Z,3.4
2023-02-03T09:42:25.000Z,4
2023-02-03T09:45:10.000Z,3.7
2023-02-03T09:53:24.000Z,3.7
2023-02-03T09:56:09.000Z,3.2
2023-02-03T09:57:27.000Z,3.4
2023-02-03T09:59:10.000Z,3.6
2023-02-03T10:01:54.000Z,3.2
2023-02-03T10:04:39.000Z,3.6
2023-02-03T10:10:08.000Z,3.4
2023-02-03T10:12:53.000Z,3.3
2023-02-03T10:15:38.000Z,3.3
2023-02-03T10:18:22.000Z,3.3
2023-02-03T10:21:07.000Z,2.9
2023-02-03T10:23:51.000Z,2.9
2023-02-03T10:26:36.000Z,2.9
2023-02-03T10:29:21.000Z,3.5
2023-02-03T10:32:05.000Z,2.8
2023-02-03T10:34:50.000Z,3
2023-02-03T10:37:35.000Z,3.4
2023-02-03T10:40:19.000Z,3.3
2023-02-03T10:43:04.000Z,3.2
2023-02-03T10:45:49.000Z,2.9
2023-02-03T10:48:33.000Z,3.1
2023-02-03T10:51:18.000Z,2.9
2023-02-03T10:52:36.000Z,2.8
2023-02-03T10:54:03.000Z,3.1
2023-02-03T10:56:47.000Z,2.8
2023-02-03T10:59:32.000Z,2.7
2023-02-03T11:02:16.000Z,2.8
2023-02-03T11:05:01.000Z,2.5
2023-02-03T11:07:46.000Z,2.8
2023-02-03T11:10:30.000Z,2.3
2023-02-03T11:13:15.000Z,2.6
2023-02-03T11:16:00.000Z,2.3
2023-02-03T11:18:44.000Z,2.4
2023-02-03T11:21:29.000Z,2.4
2023-02-03T11:22:47.000Z,2
2023-02-03T11:24:30.000Z,2
2023-02-03T11:27:15.000Z,2.4
2023-02-03T11:29:59.000Z,2
2023-02-03T11:32:44.000Z,2.3
2023-02-03T11:35:29.000Z,2.3
2023-02-03T11:38:13.000Z,2.1
2023-02-03T11:40:58.000Z,2.2
2023-02-03T11:43:42.000Z,2.7
2023-02-03T11:46:27.000Z,2.2
2023-02-03T11:49:12.000Z,2
2023-02-03T11:50:30.000Z,2.2
2023-02-03T11:51:57.000Z,2
2023-02-03T11:54:57.000Z,1.8
2023-02-03T11:57:42.000Z,2.2
2023-02-03T12:00:27.000Z,2.1
2023-02-03T12:03:11.000Z,2.2
2023-02-03T12:05:56.000Z,2.3
2023-02-03T12:08:41.000Z,2.6
2023-02-03T12:11:25.000Z,2.2
2023-02-03T12:14:10.000Z,2.4
2023-02-03T12:16:55.000Z,2.3
2023-02-03T12:18:12.000Z,2.6
2023-02-03T12:19:39.000Z,2.3
2023-02-03T12:25:08.000Z,2.3
2023-02-03T12:27:53.000Z,2.5
2023-02-03T12:30:38.000Z,2.5
2023-02-03T12:33:22.000Z,2.6
2023-02-03T12:36:07.000Z,2.6
2023-02-03T12:38:52.000Z,2.8
2023-02-03T12:41:36.000Z,2.8
2023-02-03T12:44:21.000Z,2.6
2023-02-03T12:45:39.000Z,3.2
2023-02-03T12:47:05.000Z,2.9
2023-02-03T12:48:35.000Z,2.8
2023-02-03T12:50:06.000Z,2
2023-02-03T12:51:36.000Z,2.1
2023-02-03T12:53:07.000Z,2.6
2023-02-03T12:54:37.000Z,2.2
2023-02-03T12:56:08.000Z,2.5
2023-02-03T12:57:38.000Z,2.4
2023-02-03T12:59:09.000Z,2.8
2023-02-03T13:00:39.000Z,2.3
2023-02-03T13:02:10.000Z,2.7
2023-02-03T13:03:40.000Z,2.3
2023-02-03T13:05:11.000Z,3.2
2023-02-03T13:06:41.000Z,2.8
2023-02-03T13:08:12.000Z,2.5
2023-02-03T13:09:42.000Z,2.5
2023-02-03T13:11:13.000Z,2.3
2023-02-03T13:12:44.000Z,2.6
2023-02-03T13:14:00.000Z,2.6
2023-02-03T13:15:17.000Z,2.4
2023-02-03T13:16:48.000Z,2.2
2023-02-03T13:19:49.000Z,2.4
2023-02-03T13:21:19.000Z,2.6
2023-02-03T13:22:50.000Z,2.3
2023-02-03T13:24:21.000Z,2.8
2023-02-03T13:25:51.000Z,2.6
2023-02-03T13:27:22.000Z,2.4
2023-02-03T13:30:09.000Z,2.2
2023-02-03T13:31:26.000Z,2.7
2023-02-03T13:32:56.000Z,2.7
2023-02-03T13:34:27.000Z,2.2
2023-02-03T13:35:57.000Z,2.7
2023-02-03T13:37:28.000Z,2.9
2023-02-03T13:38:58.000Z,2.2
2023-02-03T13:40:29.000Z,2.7
2023-02-03T13:41:59.000Z,2.4
2023-02-03T13:43:30.000Z,2.6
2023-02-03T13:45:00.000Z,2.5
2023-02-03T13:46:17.000Z,2.7
2023-02-03T13:47:34.000Z,2.6
2023-02-03T13:49:05.000Z,2.9
2023-02-03T13:50:35.000Z,2.4
2023-02-03T13:52:06.000Z,2.6
2023-02-03T13:53:36.000Z,2.2
2023-02-03T13:55:07.000Z,2.5
2023-02-03T13:56:37.000Z,3.2
2023-02-03T13:58:08.000Z,2.9
2023-02-03T13:59:38.000Z,2.4
2023-02-03T14:01:09.000Z,3
2023-02-03T14:02:26.000Z,2.3
2023-02-03T14:03:43.000Z,2.8
2023-02-03T14:05:13.000Z,2.7
2023-02-03T14:06:44.000Z,2.4
2023-02-03T14:08:14.000Z,3.4
2023-02-03T14:09:45.000Z,2.6
2023-02-03T14:11:15.000Z,2.8
2023-02-03T14:12:46.000Z,2.7
2023-02-03T14:14:16.000Z,2.9
2023-02-03T14:15:47.000Z,2.7
2023-02-03T14:17:17.000Z,2.7
2023-02-03T14:18:34.000Z,2.6
2023-02-03T14:19:51.000Z,2.6
2023-02-03T14:21:22.000Z,2.4
2023-02-03T14:22:52.000Z,2.7
2023-02-03T14:24:23.000Z,2.7
2023-02-03T14:25:53.000Z,2.8
2023-02-03T14:27:24.000Z,2.3
2023-02-03T14:28:54.000Z,2.3
2023-02-03T14:30:25.000Z,2.4
2023-02-03T14:31:55.000Z,2
2023-02-03T14:33:26.000Z,2.3
2023-02-03T14:34:43.000Z,2.7
2023-02-03T14:36:00.000Z,2.7
2023-02-03T14:37:30.000Z,2.4
2023-02-03T14:39:01.000Z,2.9
2023-02-03T14:40:31.000Z,2.4
2023-02-03T14:42:02.000Z,2.2
2023-02-03T14:43:32.000Z,3.1
2023-02-03T14:45:03.000Z,2.4
2023-02-03T14:46:33.000Z,2.7
2023-02-03T14:48:04.000Z,2.7
2023-02-03T14:49:34.000Z,2.4
2023-02-03T14:50:51.000Z,2.3
2023-02-03T14:52:08.000Z,2.7
2023-02-03T14:53:39.000Z,2.6
2023-02-03T14:55:09.000Z,2.6
2023-02-03T14:56:40.000Z,2.9
2023-02-03T14:58:10.000Z,2.4
2023-02-03T14:59:41.000Z,2.9
2023-02-03T15:02:42.000Z,2.8
2023-02-03T15:04:12.000Z,2.4
2023-02-03T15:05:43.000Z,2.5
2023-02-03T15:07:00.000Z,2.6
2023-02-03T15:08:16.000Z,2.3
2023-02-03T15:09:47.000Z,2.7
2023-02-03T15:11:17.000Z,2.2
2023-02-03T15:12:48.000Z,2.1
2023-02-03T15:14:18.000Z,2.2
2023-02-03T15:15:49.000Z,2.8
2023-02-03T15:17:19.000Z,2.4
2023-02-03T15:18:50.000Z,2.5
2023-02-03T15:20:21.000Z,2.3
2023-02-03T15:23:08.000Z,2.3
2023-02-03T15:24:25.000Z,2.6
2023-02-03T15:25:55.000Z,2.3
2023-02-03T15:28:57.000Z,2.3
2023-02-03T15:30:27.000Z,2.1
2023-02-03T15:31:58.000Z,2.4
2023-02-03T15:34:59.000Z,2.7
2023-02-03T15:36:29.000Z,2.7
2023-02-03T15:38:00.000Z,2.3
2023-02-03T15:39:17.000Z,2.6
2023-02-03T15:40:34.000Z,2.3
2023-02-03T15:42:04.000Z,2.8
2023-02-03T15:43:35.000Z,2.8
2023-02-03T15:45:05.000Z,2.6
2023-02-03T15:46:36.000Z,3.2
2023-02-03T15:48:06.000Z,2.3
2023-02-03T15:51:07.000Z,2.4
2023-02-03T15:52:38.000Z,2.5
2023-02-03T15:54:08.000Z,2.7
2023-02-03T15:55:25.000Z,3
2023-02-03T15:56:41.000Z,3.4
2023-02-03T15:58:12.000Z,2.9
2023-02-03T15:59:42.000Z,3
2023-02-03T16:01:13.000Z,3.3
2023-02-03T16:02:43.000Z,2.9
2023-02-03T16:04:14.000Z,2.8
2023-02-03T16:05:44.000Z,2.8
2023-02-03T16:08:45.000Z,2.9
2023-02-03T16:10:16.000Z,2.3
2023-02-03T16:11:33.000Z,2.8
2023-02-03T16:12:50.000Z,2.6
2023-02-03T16:14:20.000Z,3.2
2023-02-03T16:15:51.000Z,3.1
2023-02-03T16:17:21.000Z,2.9
2023-02-03T16:18:52.000Z,3
2023-02-03T16:20:22.000Z,2.9
2023-02-03T16:21:53.000Z,3
2023-02-03T16:23:23.000Z,3
2023-02-03T16:24:54.000Z,2.8
2023-02-03T16:26:24.000Z,3
2023-02-03T16:27:41.000Z,3
2023-02-03T16:28:58.000Z,2.6
2023-02-03T16:30:29.000Z,2.9
2023-02-03T16:31:59.000Z,3
2023-02-03T16:35:00.000Z,2.6
2023-02-03T16:36:31.000Z,2.6
2023-02-03T16:38:01.000Z,2.6
2023-02-03T16:39:32.000Z,2.8
2023-02-03T16:41:02.000Z,2.9
2023-02-03T16:42:33.000Z,2.8
2023-02-03T16:43:50.000Z,3.3
2023-02-03T16:45:07.000Z,3.4
2023-02-03T16:46:37.000Z,3
2023-02-03T16:48:08.000Z,3.2
2023-02-03T16:49:38.000Z,3.3
2023-02-03T16:51:09.000Z,2.8
2023-02-03T16:54:10.000Z,3.1
2023-02-03T16:55:40.000Z,3
2023-02-03T16:57:11.000Z,3.3
2023-02-03T16:58:41.000Z,3.3
2023-02-03T16:59:58.000Z,2.9
2023-02-03T17:01:15.000Z,3.3
2023-02-03T17:02:46.000Z,3.2
2023-02-03T17:04:16.000Z,3.6
2023-02-03T17:05:47.000Z,3.1
2023-02-03T17:07:17.000Z,3.4
2023-02-03T17:08:48.000Z,3.4
2023-02-03T17:10:18.000Z,3
2023-02-03T17:11:49.000Z,2.8
2023-02-03T17:13:19.000Z,2.9
2023-02-03T17:14:58.000Z,2.7
2023-02-03T17:16:14.000Z,3
2023-02-03T17:17:31.000Z,3.1
2023-02-03T17:19:02.000Z,2.8
2023-02-03T17:20:32.000Z,2.7
2023-02-03T17:22:03.000Z,2.5
2023-02-03T17:23:33.000Z,2.6
2023-02-03T17:25:04.000Z,2.9
2023-02-03T17:26:35.000Z,2.5
2023-02-03T17:28:05.000Z,3.2
2023-02-03T17:29:36.000Z,3
2023-02-03T17:31:06.000Z,3.3
2023-02-03T17:32:23.000Z,3
2023-02-03T17:33:40.000Z,2.6
2023-02-03T17:35:10.000Z,3
2023-02-03T17:36:41.000Z,3.3
2023-02-03T17:38:11.000Z,3
2023-02-03T17:54:20.000Z,2.4
2023-02-03T17:55:50.000Z,2.6
2023-02-03T17:57:21.000Z,3.2
2023-02-03T18:00:22.000Z,2.5
2023-02-03T18:01:52.000Z,3.1
2023-02-03T18:04:40.000Z,2.9
2023-02-03T18:05:57.000Z,2.9
2023-02-03T18:07:27.000Z,2.8
2023-02-03T18:08:58.000Z,2.9
2023-02-03T18:10:28.000Z,2.5
2023-02-03T18:11:59.000Z,3.1
2023-02-03T18:13:29.000Z,3.2
2023-02-03T18:15:00.000Z,3.1
2023-02-03T18:16:30.000Z,3.2
2023-02-03T18:18:01.000Z,3.5
2023-02-03T18:19:31.000Z,2.7
2023-02-03T18:20:48.000Z,2.9
2023-02-03T18:22:05.000Z,2.9
2023-02-03T18:23:36.000Z,3
2023-02-03T18:25:06.000Z,2.5
2023-02-03T18:26:37.000Z,2.9
2023-02-03T18:28:07.000Z,2.8
2023-02-03T18:29:38.000Z,2.9
2023-02-03T18:31:08.000Z,3.1
2023-02-03T18:32:39.000Z,2.7
2023-02-03T18:34:09.000Z,2.7
2023-02-03T18:35:40.000Z,2.5
2023-02-03T18:36:57.000Z,2.9
2023-02-03T18:38:14.000Z,2.9
2023-02-03T18:39:44.000Z,2.9
2023-02-03T18:41:15.000Z,2.6
2023-02-03T18:42:45.000Z,2.9
2023-02-03T18:44:16.000Z,2.9
2023-02-03T18:45:46.000Z,2.9
2023-02-03T18:47:17.000Z,2.5
2023-02-03T18:48:47.000Z,2.8
2023-02-03T18:51:48.000Z,2.9
2023-02-03T18:53:05.000Z,2.5
2023-02-03T18:54:22.000Z,2.9
2023-02-03T18:55:52.000Z,2.9
2023-02-03T18:57:23.000Z,3.2
2023-02-03T18:58:53.000Z,2.9
2023-02-03T19:00:24.000Z,3.2
2023-02-03T19:01:54.000Z,4.1
2023-02-03T19:03:25.000Z,2.7
2023-02-03T19:04:55.000Z,3.4
2023-02-03T19:06:26.000Z,2.7
2023-02-03T19:07:56.000Z,2.9
2023-02-03T19:09:13.000Z,3
2023-02-03T19:10:30.000Z,3.3
2023-02-03T19:12:01.000Z,2.9
2023-02-03T19:15:02.000Z,2.8
2023-02-03T19:18:03.000Z,3.2
2023-02-03T19:19:33.000Z,3.3
2023-02-03T19:21:04.000Z,2.5
2023-02-03T19:22:35.000Z,3.2
2023-02-03T19:24:05.000Z,3.1
2023-02-03T19:25:22.000Z,3
2023-02-03T19:26:39.000Z,3
2023-02-03T19:28:09.000Z,2.9
2023-02-03T19:29:40.000Z,2.7
2023-02-03T19:31:11.000Z,2.9
2023-02-03T19:32:41.000Z,3.1
2023-02-03T19:34:12.000Z,2.7
2023-02-03T19:35:42.000Z,3.3
2023-02-03T19:37:13.000Z,2.8
2023-02-03T19:38:43.000Z,2.6
2023-02-03T19:40:14.000Z,2.4
2023-02-03T19:41:31.000Z,2.8
2023-02-03T19:42:48.000Z,2.8
2023-02-03T19:44:18.000Z,2.5
2023-02-03T19:45:49.000Z,3
2023-02-03T19:47:19.000Z,2.7
2023-02-03T19:48:50.000Z,2.2
2023-02-03T19:50:20.000Z,3.6
2023-02-03T19:51:51.000Z,3
2023-02-03T19:53:21.000Z,3
2023-02-03T19:54:52.000Z,2.9
2023-02-03T19:56:22.000Z,3
2023-02-03T19:57:39.000Z,2.6
2023-02-03T19:58:56.000Z,2.7
2023-02-03T20:00:27.000Z,2.9
2023-02-03T20:01:57.000Z,3.3
2023-02-03T20:03:28.000Z,2.5
2023-02-03T20:04:58.000Z,3.2
2023-02-03T20:06:29.000Z,2.8
2023-02-03T20:07:59.000Z,3
2023-02-03T20:09:30.000Z,2.7
2023-02-03T20:11:00.000Z,3.1
2023-02-03T20:12:31.000Z,2.6
2023-02-03T20:13:48.000Z,3
2023-02-03T20:15:05.000Z,2.9
2023-02-03T20:16:35.000Z,2.9
2023-02-03T20:19:36.000Z,3.1
2023-02-03T20:21:07.000Z,3.2
2023-02-03T20:22:37.000Z,3.5
2023-02-03T20:24:08.000Z,3.9
2023-02-03T20:25:38.000Z,3.6
2023-02-03T20:27:09.000Z,4.2
2023-02-03T20:28:39.000Z,3.2
2023-02-03T20:29:56.000Z,3.1
2023-02-03T20:31:13.000Z,3.1
2023-02-03T20:32:44.000Z,3.3
2023-02-03T20:34:14.000Z,3
2023-02-03T20:35:45.000Z,2.9
2023-02-03T20:37:15.000Z,3.5
2023-02-03T20:38:46.000Z,3
2023-02-03T20:40:16.000Z,3.4
2023-02-03T20:41:47.000Z,3.1
2023-02-03T20:43:17.000Z,3.3
2023-02-03T20:44:48.000Z,3.1
2023-02-03T20:46:05.000Z,3.7
2023-02-03T20:47:21.000Z,3.5
2023-02-03T20:48:52.000Z,3.3
2023-02-03T20:50:22.000Z,3.8
2023-02-03T20:51:53.000Z,3.9
2023-02-03T20:53:23.000Z,3.8
2023-02-03T20:54:54.000Z,3.4
2023-02-03T20:56:24.000Z,3.4
2023-02-03T20:57:55.000Z,2.8
2023-02-03T20:59:25.000Z,2.8
2023-02-03T21:00:56.000Z,4
2023-02-03T21:02:13.000Z,3.2
2023-02-03T21:03:30.000Z,3.3
2023-02-03T21:05:00.000Z,4
2023-02-03T21:06:31.000Z,4
2023-02-03T21:08:01.000Z,3.7
2023-02-03T21:09:32.000Z,3.4
2023-02-03T21:11:02.000Z,3.6
2023-02-03T21:12:33.000Z,3.2
2023-02-03T21:14:03.000Z,3.7
2023-02-03T21:15:34.000Z,3.7
2023-02-03T21:17:04.000Z,3.4
2023-02-03T21:18:21.000Z,3.7
2023-02-03T21:19:38.000Z,3.4
2023-02-03T21:21:09.000Z,3.2
2023-02-03T21:22:39.000Z,3.5
2023-02-03T21:24:10.000Z,3.4
2023-02-03T21:25:40.000Z,3.5
2023-02-03T21:27:11.000Z,3.7
2023-02-03T21:28:41.000Z,2.8
2023-02-03T21:30:12.000Z,3.5
2023-02-03T21:31:42.000Z,3.5
2023-02-03T21:33:13.000Z,4.1
2023-02-03T21:34:30.000Z,2.7
2023-02-03T21:35:47.000Z,3.7
2023-02-03T21:37:17.000Z,3.5
2023-02-03T21:38:48.000Z,4.1
2023-02-03T21:40:18.000Z,3.3
2023-02-03T21:41:49.000Z,3.7
2023-02-03T21:43:19.000Z,3.8
2023-02-03T21:44:50.000Z,3.5
2023-02-03T21:46:20.000Z,3.2
2023-02-03T21:47:51.000Z,3.4
2023-02-03T21:49:21.000Z,3.4
2023-02-03T21:50:38.000Z,3.2
2023-02-03T21:51:55.000Z,2.9
2023-02-03T21:53:26.000Z,3.3
2023-02-03T21:54:56.000Z,3.5
2023-02-03T21:56:27.000Z,3.4
2023-02-03T21:57:57.000Z,3.7
2023-02-03T21:59:28.000Z,3.5
2023-02-03T22:00:59.000Z,3.7
2023-02-03T22:02:29.000Z,3.3
2023-02-03T22:04:00.000Z,3.7
2023-02-03T22:05:30.000Z,3.5
2023-02-03T22:06:47.000Z,3.4
2023-02-03T22:08:04.000Z,3.8
2023-02-03T22:09:42.000Z,3.7
2023-02-03T22:11:13.000Z,3.5
2023-02-03T22:12:43.000Z,3
2023-02-03T22:14:14.000Z,3.4
2023-02-03T22:15:44.000Z,3.3
2023-02-03T22:17:15.000Z,3.2
2023-02-03T22:18:45.000Z,3.4
2023-02-03T22:20:16.000Z,4
2023-02-03T22:21:46.000Z,3.2
2023-02-03T22:23:03.000Z,4
2023-02-03T22:24:20.000Z,3.2
2023-02-03T22:25:51.000Z,3.4
2023-02-03T22:27:21.000Z,3.6
2023-02-03T22:28:52.000Z,3.3
2023-02-03T22:30:22.000Z,3.5
2023-02-03T22:31:53.000Z,3.8
2023-02-03T22:33:23.000Z,3.8
2023-02-03T22:36:24.000Z,3.1
2023-02-03T22:37:55.000Z,2.9
2023-02-03T22:39:12.000Z,3.2
2023-02-03T22:40:29.000Z,4
2023-02-03T22:41:59.000Z,3.5
2023-02-03T22:43:30.000Z,3.3
2023-02-03T22:45:00.000Z,3.1
2023-02-03T22:46:31.000Z,3.7
2023-02-03T22:48:01.000Z,3.9
2023-02-03T22:49:32.000Z,3.1
2023-02-03T22:51:02.000Z,3.7
2023-02-03T22:52:33.000Z,3
2023-02-03T22:54:03.000Z,3
2023-02-03T22:55:20.000Z,4.1
2023-02-03T22:56:37.000Z,3.4
2023-02-03T22:58:08.000Z,3
2023-02-03T22:59:38.000Z,3.1
2023-02-03T23:01:09.000Z,3
2023-02-03T23:02:39.000Z,3.2
2023-02-03T23:05:40.000Z,3.2
2023-02-03T23:07:11.000Z,3.3
2023-02-03T23:08:41.000Z,3.1
2023-02-03T23:10:12.000Z,2.7
2023-02-03T23:11:29.000Z,3.2
2023-02-03T23:12:46.000Z,3.2
2023-02-03T23:14:16.000Z,3.9
2023-02-03T23:15:47.000Z,3.1
2023-02-03T23:17:17.000Z,3.4
2023-02-03T23:18:48.000Z,3.4
2023-02-03T23:20:18.000Z,3.2
2023-02-03T23:21:49.000Z,3.4
2023-02-03T23:23:19.000Z,3
2023-02-03T23:24:50.000Z,3.5
2023-02-03T23:26:21.000Z,4.1
2023-02-03T23:27:37.000Z,4.4
2023-02-03T23:28:54.000Z,3.7
2023-02-03T23:31:55.000Z,3.5
2023-02-03T23:33:26.000Z,2.9
2023-02-03T23:34:56.000Z,2.9
2023-02-03T23:36:27.000Z,3.7
2023-02-03T23:37:58.000Z,3.5
2023-02-03T23:39:28.000Z,3.4
2023-02-03T23:40:59.000Z,3.4
2023-02-03T23:42:29.000Z,2.9
2023-02-03T23:43:46.000Z,3
2023-02-03T23:45:03.000Z,2.8
2023-02-03T23:46:34.000Z,3.3
2023-02-03T23:48:04.000Z,3.6
2023-02-03T23:49:35.000Z,3.4
2023-02-03T23:51:05.000Z,3.6
2023-02-03T23:52:36.000Z,3.3
2023-02-03T23:54:06.000Z,2.7
2023-02-03T23:55:37.000Z,3.6
2023-02-03T23:57:07.000Z,2.9
2023-02-03T23:58:38.000Z,3.3
2023-02-03T23:59:55.000Z,3.2
